createdAt,value
2019-04-01T00:00:30.196Z,949
2019-04-01T00:03:36.201Z,949
2019-04-01T00:06:44.676Z,949.1
2019-04-01T00:09:50.634Z,949
2019-04-01T00:12:56.503Z,949
2019-04-01T00:16:02.556Z,949
2019-04-01T00:19:08.516Z,949
2019-04-01T00:22:14.467Z,949
2019-04-01T00:25:20.371Z,949
2019-04-01T00:28:26.388Z,949.2
2019-04-01T00:31:32.395Z,949.1
2019-04-01T00:34:38.410Z,949.1
2019-04-01T00:37:44.378Z,949
2019-04-01T00:40:50.251Z,949
2019-04-01T00:43:58.850Z,949
2019-04-01T00:47:04.909Z,949.1
2019-04-01T00:50:10.972Z,949.1
2019-04-01T00:53:19.301Z,949
2019-04-01T00:56:25.256Z,949.1
2019-04-01T00:59:31.235Z,949.1
2019-04-01T01:02:37.172Z,949.1
2019-04-01T01:05:43.156Z,949.1
2019-04-01T01:08:49.073Z,949.1
2019-04-01T01:11:55.054Z,949.1
2019-04-01T01:15:01.144Z,949.1
2019-04-01T01:18:09.935Z,949.2
2019-04-01T01:21:15.894Z,949.1
2019-04-01T01:24:21.857Z,949.2
2019-04-01T01:27:27.853Z,949.1
2019-04-01T01:30:33.732Z,949.1
2019-04-01T01:33:39.741Z,949.1
2019-04-01T01:36:45.806Z,949.1
2019-04-01T01:39:51.920Z,949.1
2019-04-01T01:42:57.926Z,949.1
2019-04-01T01:46:04.045Z,949.1
2019-04-01T01:49:10.044Z,949.1
2019-04-01T01:52:15.981Z,949.1
2019-04-01T01:55:21.964Z,949.1
2019-04-01T01:58:27.842Z,949.1
2019-04-01T02:01:33.789Z,949.1
2019-04-01T02:04:39.663Z,949
2019-04-01T02:07:45.608Z,949.1
2019-04-01T02:10:51.772Z,949.1
2019-04-01T02:13:57.729Z,949.1
2019-04-01T02:17:03.601Z,949.1
2019-04-01T02:20:09.546Z,949.1
2019-04-01T02:23:15.507Z,949.1
2019-04-01T02:26:21.391Z,949.1
2019-04-01T02:29:29.939Z,949.1
2019-04-01T02:32:35.821Z,949.1
2019-04-01T02:35:41.794Z,949.1
2019-04-01T02:38:47.861Z,949.2
2019-04-01T02:41:53.920Z,949.2
2019-04-01T02:44:59.993Z,949.4
2019-04-01T02:48:06.350Z,949.1
2019-04-01T02:51:12.260Z,949.4
2019-04-01T02:54:18.321Z,949.2
2019-04-01T02:57:24.462Z,949.4
2019-04-01T03:00:30.498Z,949.2
2019-04-01T03:03:36.459Z,949.3
2019-04-01T03:06:42.337Z,949.2
2019-04-01T03:09:48.693Z,949.2
2019-04-01T03:12:54.649Z,949.2
2019-04-01T03:16:00.707Z,949.2
2019-04-01T03:19:06.675Z,949.3
2019-04-01T03:22:12.897Z,949.3
2019-04-01T03:25:18.903Z,949.3
2019-04-01T03:28:24.858Z,949.4
2019-04-01T03:31:30.815Z,949.3
2019-04-01T03:34:36.932Z,949.4
2019-04-01T03:37:43.140Z,949.3
2019-04-01T03:40:49.150Z,949.3
2019-04-01T03:43:55.203Z,949.3
2019-04-01T03:47:01.225Z,949.3
2019-04-01T03:50:07.241Z,949.3
2019-04-01T03:53:13.246Z,949.3
2019-04-01T03:56:19.207Z,949.3
2019-04-01T03:59:25.168Z,949.3
2019-04-01T04:02:31.147Z,949.4
2019-04-01T04:05:37.343Z,949.4
2019-04-01T04:08:43.356Z,949.5
2019-04-01T04:11:49.312Z,949.6
2019-04-01T04:14:55.252Z,949.5
2019-04-01T04:18:01.335Z,949.6
2019-04-01T04:21:07.266Z,949.7
2019-04-01T04:24:13.254Z,949.7
2019-04-01T04:27:19.319Z,949.7
2019-04-01T04:30:25.453Z,949.8
2019-04-01T04:33:31.447Z,949.8
2019-04-01T04:36:37.405Z,949.8
2019-04-01T04:39:43.364Z,949.8
2019-04-01T04:42:49.372Z,949.8
2019-04-01T04:45:55.387Z,949.8
2019-04-01T04:49:01.449Z,949.8
2019-04-01T04:52:07.323Z,949.8
2019-04-01T04:55:13.365Z,949.8
2019-04-01T04:58:19.251Z,949.8
2019-04-01T05:01:25.187Z,949.8
2019-04-01T05:04:31.143Z,949.9
2019-04-01T05:07:37.309Z,949.8
2019-04-01T05:10:43.211Z,949.9
2019-04-01T05:13:49.399Z,949.9
2019-04-01T05:16:55.400Z,949.9
2019-04-01T05:20:01.716Z,949.9
2019-04-01T05:23:07.731Z,950
2019-04-01T05:26:13.792Z,950
2019-04-01T05:29:22.717Z,950
2019-04-01T05:32:28.538Z,950
2019-04-01T05:35:34.528Z,949.9
2019-04-01T05:38:40.796Z,950
2019-04-01T05:41:46.754Z,950
2019-04-01T05:44:52.716Z,949.9
2019-04-01T05:47:58.674Z,949.9
2019-04-01T05:51:04.738Z,949.9
2019-04-01T05:54:10.704Z,949.9
2019-04-01T05:57:16.760Z,950
2019-04-01T06:00:22.728Z,949.8
2019-04-01T06:03:28.617Z,949.8
2019-04-01T06:06:34.642Z,949.8
2019-04-01T06:09:40.604Z,949.9
2019-04-01T06:12:46.561Z,950
2019-04-01T06:15:52.522Z,950
2019-04-01T06:18:58.699Z,949.9
2019-04-01T06:22:08.234Z,950
2019-04-01T06:25:14.144Z,950
2019-04-01T06:28:20.373Z,949.9
2019-04-01T06:31:26.365Z,949.9
2019-04-01T06:34:33.257Z,950
2019-04-01T06:37:39.371Z,949.9
2019-04-01T06:40:45.356Z,949.9
2019-04-01T06:43:51.367Z,949.9
2019-04-01T06:46:58.384Z,950
2019-04-01T06:50:04.444Z,950
2019-04-01T06:53:11.529Z,950
2019-04-01T06:56:17.590Z,950
2019-04-01T06:59:23.858Z,950.1
2019-04-01T07:02:29.879Z,950
2019-04-01T07:05:36.126Z,950
2019-04-01T07:08:42.352Z,950
2019-04-01T07:11:48.306Z,950
2019-04-01T07:14:54.581Z,950.1
2019-04-01T07:18:00.454Z,950
2019-04-01T07:21:06.493Z,950
2019-04-01T07:24:12.557Z,949.9
2019-04-01T07:27:18.515Z,950
2019-04-01T07:30:24.635Z,950
2019-04-01T07:33:30.707Z,950
2019-04-01T07:36:37.069Z,950
2019-04-01T07:39:42.956Z,950
2019-04-01T07:42:48.934Z,950.1
2019-04-01T07:45:56.135Z,950.1
2019-04-01T07:49:05.420Z,950.1
2019-04-01T07:52:11.480Z,950.1
2019-04-01T07:55:18.517Z,950.1
2019-04-01T07:58:25.600Z,950.1
2019-04-01T08:01:31.678Z,950
2019-04-01T08:04:38.055Z,950
2019-04-01T08:07:44.102Z,950.1
2019-04-01T08:10:50.105Z,950
2019-04-01T08:13:56.091Z,950
2019-04-01T08:17:02.153Z,950
2019-04-01T08:20:08.174Z,950
2019-04-01T08:23:17.123Z,950
2019-04-01T08:26:23.256Z,949.9
2019-04-01T08:29:31.882Z,950
2019-04-01T08:32:39.300Z,949.9
2019-04-01T08:35:45.330Z,949.9
2019-04-01T08:38:51.290Z,949.9
2019-04-01T08:42:00.836Z,949.9
2019-04-01T08:45:06.843Z,949.8
2019-04-01T08:48:12.823Z,949.8
2019-04-01T08:51:18.820Z,949.8
2019-04-01T08:54:24.697Z,949.7
2019-04-01T08:57:30.889Z,949.7
2019-04-01T09:00:36.765Z,949.7
2019-04-01T09:03:42.772Z,949.6
2019-04-01T09:06:48.721Z,949.6
2019-04-01T09:09:54.785Z,949.6
2019-04-01T09:13:00.795Z,949.5
2019-04-01T09:16:06.938Z,949.5
2019-04-01T09:19:13.006Z,949.5
2019-04-01T09:22:18.903Z,949.5
2019-04-01T09:25:25.018Z,949.5
2019-04-01T09:28:30.960Z,949.5
2019-04-01T09:31:36.879Z,949.4
2019-04-01T09:34:42.984Z,949.4
2019-04-01T09:37:48.940Z,949.3
2019-04-01T09:40:55.004Z,949.4
2019-04-01T09:44:01.182Z,949.3
2019-04-01T09:47:07.079Z,949.2
2019-04-01T09:50:13.003Z,949.1
2019-04-01T09:53:18.870Z,949.1
2019-04-01T09:56:24.922Z,949.1
2019-04-01T09:59:33.708Z,949.1
2019-04-01T10:02:39.701Z,949.1
2019-04-01T10:05:45.656Z,949
2019-04-01T10:08:51.635Z,949
2019-04-01T10:11:57.510Z,949
2019-04-01T10:15:03.641Z,949
2019-04-01T10:18:09.601Z,949
2019-04-01T10:21:15.760Z,948.9
2019-04-01T10:24:21.765Z,949
2019-04-01T10:27:27.679Z,949
2019-04-01T10:30:33.667Z,948.9
2019-04-01T10:33:39.541Z,948.9
2019-04-01T10:36:45.560Z,948.9
2019-04-01T10:39:51.619Z,948.9
2019-04-01T10:42:57.499Z,948.9
2019-04-01T10:46:03.851Z,948.9
2019-04-01T10:49:10.238Z,948.8
2019-04-01T10:52:16.580Z,948.7
2019-04-01T10:55:25.964Z,948.8
2019-04-01T10:58:32.238Z,948.7
2019-04-01T11:01:38.610Z,948.7
2019-04-01T11:04:44.912Z,948.6
2019-04-01T11:07:51.179Z,948.6
2019-04-01T11:10:57.247Z,948.5
2019-04-01T11:14:03.324Z,948.5
2019-04-01T11:17:09.225Z,948.5
2019-04-01T11:20:15.251Z,948.5
2019-04-01T11:23:21.355Z,948.4
2019-04-01T11:26:27.517Z,948.5
2019-04-01T11:29:33.470Z,948.4
2019-04-01T11:32:41.322Z,948.4
2019-04-01T11:35:47.563Z,948.3
2019-04-01T11:38:53.732Z,948.4
2019-04-01T11:42:02.636Z,948.3
2019-04-01T11:45:09.036Z,948.2
2019-04-01T11:48:15.708Z,948.3
2019-04-01T11:51:40.555Z,948.2
2019-04-01T11:54:46.962Z,948.2
2019-04-01T11:57:53.078Z,948.1
2019-04-01T12:00:58.980Z,948.2
2019-04-01T12:04:04.997Z,948.1
2019-04-01T12:07:10.925Z,948.1
2019-04-01T12:10:16.968Z,948.1
2019-04-01T12:13:22.847Z,948
2019-04-01T12:16:29.043Z,948
2019-04-01T12:19:34.918Z,948.1
2019-04-01T12:22:46.852Z,948
2019-04-01T12:25:52.962Z,948
2019-04-01T12:28:59.089Z,948
2019-04-01T12:32:05.063Z,947.9
2019-04-01T12:35:11.142Z,947.9
2019-04-01T12:38:17.628Z,947.9
2019-04-01T12:41:23.581Z,947.9
2019-04-01T12:44:29.652Z,947.9
2019-04-01T12:47:35.726Z,947.8
2019-04-01T12:50:45.574Z,947.7
2019-04-01T12:53:51.698Z,947.8
2019-04-01T12:56:57.929Z,947.8
2019-04-01T13:00:03.954Z,947.8
2019-04-01T13:03:10.093Z,947.7
2019-04-01T13:06:16.288Z,947.7
2019-04-01T13:09:24.653Z,947.7
2019-04-01T13:12:30.868Z,947.7
2019-04-01T13:15:36.759Z,947.6
2019-04-01T13:18:43.144Z,947.6
2019-04-01T13:21:50.743Z,947.7
2019-04-01T13:24:56.819Z,947.6
2019-04-01T13:28:08.034Z,947.6
2019-04-01T13:31:17.236Z,947.7
2019-04-01T13:34:23.268Z,947.6
2019-04-01T13:37:29.300Z,947.5
2019-04-01T13:40:35.294Z,947.7
2019-04-01T13:43:42.282Z,947.5
2019-04-01T13:46:51.890Z,947.6
2019-04-01T13:50:01.212Z,947.6
2019-04-01T13:53:09.047Z,947.6
2019-04-01T13:56:15.148Z,947.6
2019-04-01T13:59:21.162Z,947.6
2019-04-01T14:02:31.944Z,947.6
2019-04-01T14:05:37.997Z,947.7
2019-04-01T14:08:44.117Z,947.7
2019-04-01T14:11:50.132Z,947.7
2019-04-01T14:14:56.179Z,947.6
2019-04-01T14:18:02.242Z,947.6
2019-04-01T14:21:21.359Z,947.6
2019-04-01T14:24:28.741Z,947.6
2019-04-01T14:27:34.648Z,947.7
2019-04-01T14:30:42.271Z,947.6
2019-04-01T14:33:48.149Z,947.7
2019-04-01T14:36:54.220Z,947.7
2019-04-01T14:40:00.248Z,947.7
2019-04-01T14:43:06.172Z,947.8
2019-04-01T14:46:13.916Z,947.7
2019-04-01T14:49:19.946Z,947.7
2019-04-01T14:52:33.678Z,947.7
2019-04-01T14:55:39.949Z,947.7
2019-04-01T14:58:45.933Z,947.8
2019-04-01T15:01:52.007Z,947.7
2019-04-01T15:04:57.884Z,947.7
2019-04-01T15:08:07.786Z,947.8
2019-04-01T15:11:13.979Z,947.8
2019-04-01T15:14:20.055Z,947.8
2019-04-01T15:17:26.033Z,947.7
2019-04-01T15:20:31.959Z,947.8
2019-04-01T15:23:37.921Z,947.8
2019-04-01T15:26:43.798Z,947.8
2019-04-01T15:29:49.839Z,947.8
2019-04-01T15:32:55.722Z,947.8
2019-04-01T15:36:05.346Z,947.9
2019-04-01T15:39:11.229Z,947.8
2019-04-01T15:42:17.160Z,947.8
2019-04-01T15:45:23.221Z,947.8
2019-04-01T15:48:29.104Z,947.8
2019-04-01T15:51:35.137Z,947.8
2019-04-01T15:54:42.125Z,947.8
2019-04-01T15:57:48.191Z,947.8
2019-04-01T16:00:54.252Z,947.9
2019-04-01T16:04:00.210Z,947.9
2019-04-01T16:07:06.089Z,947.9
2019-04-01T16:10:12.129Z,948
2019-04-01T16:13:18.139Z,947.9
2019-04-01T16:16:24.019Z,948
2019-04-01T16:19:30.624Z,947.9
2019-04-01T16:22:36.543Z,948
2019-04-01T16:25:46.129Z,948
2019-04-01T16:28:52.081Z,948
2019-04-01T16:31:59.080Z,948.1
2019-04-01T16:35:04.959Z,948.1
2019-04-01T16:38:10.924Z,948.1
2019-04-01T16:41:17.788Z,948.2
2019-04-01T16:44:23.826Z,948.2
2019-04-01T16:47:29.822Z,948.2
2019-04-01T16:50:38.670Z,948.2
2019-04-01T16:53:45.701Z,948.2
2019-04-01T16:56:51.660Z,948.3
2019-04-01T16:59:58.343Z,948.2
2019-04-01T17:03:07.277Z,948.3
2019-04-01T17:06:17.172Z,948.3
2019-04-01T17:09:23.179Z,948.4
2019-04-01T17:12:29.651Z,948.4
2019-04-01T17:15:35.713Z,948.4
2019-04-01T17:18:41.725Z,948.5
2019-04-01T17:21:47.789Z,948.6
2019-04-01T17:24:53.662Z,948.6
2019-04-01T17:28:04.120Z,948.7
2019-04-01T17:31:10.223Z,948.6
2019-04-01T17:34:17.007Z,948.7
2019-04-01T17:37:22.967Z,948.8
2019-04-01T17:40:28.846Z,948.9
2019-04-01T17:43:34.888Z,948.9
2019-04-01T17:46:40.769Z,948.9
2019-04-01T17:49:46.705Z,949
2019-04-01T17:52:54.458Z,949
2019-04-01T17:56:00.463Z,949.1
2019-04-01T17:59:06.425Z,949.1
2019-04-01T18:02:17.819Z,949.3
2019-04-01T18:05:23.781Z,949.3
2019-04-01T18:08:29.656Z,949.3
2019-04-01T18:11:37.236Z,949.4
2019-04-01T18:14:43.315Z,949.5
2019-04-01T18:17:50.941Z,949.5
2019-04-01T18:20:56.954Z,949.5
2019-04-01T18:24:03.017Z,949.5
2019-04-01T18:27:09.078Z,949.5
2019-04-01T18:30:16.807Z,949.6
2019-04-01T18:33:22.739Z,949.6
2019-04-01T18:36:28.726Z,949.6
2019-04-01T18:39:50.825Z,949.6
2019-04-01T18:43:03.403Z,949.7
2019-04-01T18:46:09.416Z,949.7
2019-04-01T18:49:15.309Z,949.8
2019-04-01T18:52:22.666Z,949.7
2019-04-01T18:55:28.604Z,949.8
2019-04-01T18:58:36.434Z,949.9
2019-04-01T19:01:43.277Z,949.8
2019-04-01T19:04:52.997Z,949.8
2019-04-01T19:07:59.024Z,949.9
2019-04-01T19:11:06.532Z,949.8
2019-04-01T19:14:14.436Z,949.9
2019-04-01T19:17:20.693Z,950
2019-04-01T19:20:30.048Z,949.9
2019-04-01T19:23:39.474Z,950
2019-04-01T19:26:45.433Z,950
2019-04-01T19:29:51.393Z,950.1
2019-04-01T19:32:57.369Z,950
2019-04-01T19:36:03.314Z,950.1
2019-04-01T19:39:09.267Z,950.1
2019-04-01T19:42:15.227Z,950.2
2019-04-01T19:45:22.727Z,950.3
2019-04-01T19:48:28.664Z,950.2
2019-04-01T19:51:37.472Z,950.2
2019-04-01T19:54:43.470Z,950.3
2019-04-01T19:57:49.351Z,950.4
2019-04-01T20:00:55.441Z,950.3
2019-04-01T20:04:02.966Z,950.3
2019-04-01T20:07:08.948Z,950.3
2019-04-01T20:10:14.827Z,950.3
2019-04-01T20:13:22.507Z,950.3
2019-04-01T20:16:28.464Z,950.3
2019-04-01T20:19:35.243Z,950.4
2019-04-01T20:22:41.204Z,950.4
2019-04-01T20:25:50.800Z,950.4
2019-04-01T20:28:56.812Z,950.4
2019-04-01T20:32:02.691Z,950.4
2019-04-01T20:35:25.319Z,950.5
2019-04-01T20:38:32.931Z,950.5
2019-04-01T20:41:38.901Z,950.5
2019-04-01T20:44:44.941Z,950.5
2019-04-01T20:47:51.619Z,950.6
2019-04-01T20:50:58.661Z,950.6
2019-04-01T20:54:04.663Z,950.5
2019-04-01T20:57:10.808Z,950.6
2019-04-01T21:00:16.800Z,950.6
2019-04-01T21:03:22.677Z,950.6
2019-04-01T21:06:32.396Z,950.6
2019-04-01T21:09:38.367Z,950.6
2019-04-01T21:12:44.243Z,950.6
2019-04-01T21:15:50.399Z,950.6
2019-04-01T21:18:56.339Z,950.6
2019-04-01T21:22:02.218Z,950.6
2019-04-01T21:25:09.794Z,950.6
2019-04-01T21:28:15.907Z,950.7
2019-04-01T21:31:25.725Z,950.7
2019-04-01T21:34:31.670Z,950.7
2019-04-01T21:37:37.568Z,950.8
2019-04-01T21:40:43.589Z,950.8
2019-04-01T21:43:50.264Z,950.7
2019-04-01T21:46:56.334Z,950.8
2019-04-01T21:50:02.294Z,950.8
2019-04-01T21:53:09.999Z,950.8
2019-04-01T21:56:16.070Z,950.9
2019-04-01T21:59:22.022Z,950.9
2019-04-01T22:02:37.132Z,950.8
2019-04-01T22:05:44.485Z,950.9
2019-04-01T22:08:50.491Z,950.9
2019-04-01T22:11:57.166Z,950.9
2019-04-01T22:15:04.015Z,951
2019-04-01T22:18:09.954Z,951
2019-04-01T22:21:17.756Z,951
2019-04-01T22:24:23.638Z,950.9
2019-04-01T22:27:29.580Z,950.9
2019-04-01T22:30:35.537Z,951
2019-04-01T22:33:41.805Z,951
2019-04-01T22:36:47.764Z,951
2019-04-01T22:39:53.826Z,950.9
2019-04-01T22:42:59.786Z,950.9
2019-04-01T22:46:05.871Z,950.9
2019-04-01T22:49:13.253Z,950.9
2019-04-01T22:52:19.207Z,950.9
2019-04-01T22:55:25.078Z,950.9
2019-04-01T22:58:32.970Z,950.9
2019-04-01T23:01:38.925Z,950.8
2019-04-01T23:04:44.886Z,950.9
2019-04-01T23:07:50.847Z,951
2019-04-01T23:10:57.650Z,951
2019-04-01T23:14:03.621Z,951
2019-04-01T23:17:11.166Z,950.9
2019-04-01T23:20:17.252Z,951
2019-04-01T23:23:23.210Z,951
2019-04-01T23:26:31.221Z,951
2019-04-01T23:29:37.285Z,950.9
2019-04-01T23:32:45.148Z,950.9
2019-04-01T23:35:51.351Z,950.8
2019-04-01T23:38:57.228Z,950.8
2019-04-01T23:42:03.168Z,950.8
2019-04-01T23:45:11.870Z,950.8
2019-04-01T23:48:17.854Z,950.7
2019-04-01T23:51:23.913Z,950.8
2019-04-01T23:54:31.841Z,950.9
2019-04-01T23:57:37.716Z,950.9
